Time;durP1;ratioP1;P1;durP2;ratioP2;P2;SDS_P1;SDS_P2;PMS_P1;PMS_P2;Temp;Humidity;BMP_temperature;BMP_pressure;BME280_temperature;BME280_humidity;BME280_pressure;Samples;Min_cycle;Max_cycle;Signal;HPM_P1;HPM_P2
2022/12/24 00:01:59;;;;;;;26.95;15.88;;;8.80;99.90;;;;;;6205683;23;20180;-87
2022/12/24 00:04:31;;;;;;;24.80;17.38;;;8.70;99.90;;;;;;6228656;23;20361;-87
2022/12/24 00:06:59;;;;;;;20.95;13.10;;;8.80;99.90;;;;;;6233481;23;20345;-84
2022/12/24 00:09:26;;;;;;;13.80;9.98;;;8.80;99.90;;;;;;6230129;23;20372;-85
2022/12/24 00:11:53;;;;;;;17.15;12.20;;;8.90;99.90;;;;;;6228712;23;20288;-86
2022/12/24 00:14:20;;;;;;;22.80;16.50;;;9.00;99.90;;;;;;6230585;23;20199;-86
2022/12/24 00:16:48;;;;;;;27.98;15.27;;;8.90;99.90;;;;;;6230212;23;20178;-86
2022/12/24 00:19:17;;;;;;;37.83;18.80;;;8.80;99.90;;;;;;6230123;23;20190;-87
2022/12/24 00:21:46;;;;;;;20.15;12.55;;;8.80;99.90;;;;;;6230478;23;20177;-86
2022/12/24 00:24:13;;;;;;;19.02;11.95;;;8.90;99.90;;;;;;6229790;23;20200;-84
2022/12/24 00:26:40;;;;;;;19.83;10.60;;;8.80;99.90;;;;;;6230851;23;20177;-84
2022/12/24 00:29:08;;;;;;;26.17;15.73;;;8.60;99.90;;;;;;6233232;23;20392;-83
2022/12/24 00:31:36;;;;;;;21.63;14.02;;;8.70;99.90;;;;;;6234357;23;20223;-83
2022/12/24 00:34:04;;;;;;;19.13;11.50;;;8.80;99.90;;;;;;6231509;23;20170;-86
2022/12/24 00:36:31;;;;;;;16.23;11.02;;;9.00;99.90;;;;;;6230665;23;20172;-87
2022/12/24 00:38:58;;;;;;;15.85;10.90;;;9.10;99.90;;;;;;6229636;23;20182;-84
2022/12/24 00:41:27;;;;;;;18.13;11.80;;;9.20;99.90;;;;;;6229392;23;20195;-84
2022/12/24 00:44:04;;;;;;;14.32;9.85;;;9.20;99.90;;;;;;6233592;23;20180;-85
2022/12/24 00:46:33;;;;;;;40.53;20.40;;;9.20;99.90;;;;;;6242439;23;20216;-89
2022/12/24 00:49:01;;;;;;;40.53;20.52;;;9.10;99.90;;;;;;6240991;23;20161;-93
2022/12/24 00:51:29;;;;;;;23.58;14.18;;;9.40;99.90;;;;;;6229302;23;20311;-83
2022/12/24 00:53:58;;;;;;;28.77;15.77;;;9.50;99.90;;;;;;6228726;23;20190;-85
2022/12/24 00:56:26;;;;;;;14.13;9.65;;;9.30;99.90;;;;;;6227936;23;20488;-84
2022/12/24 00:58:53;;;;;;;12.95;10.00;;;9.10;99.90;;;;;;6235227;23;20186;-84
2022/12/24 01:01:25;;;;;;;24.73;13.55;;;9.00;99.90;;;;;;6231898;23;20182;-84
2022/12/24 01:05:09;;;;;;;20.58;11.18;;;8.90;99.90;;;;;;6231635;23;20190;-82
2022/12/24 01:06:44;;;;;;;43.90;18.23;;;8.70;99.90;;;;;;6232818;23;20199;-84
2022/12/24 01:09:11;;;;;;;21.50;12.25;;;8.90;99.90;;;;;;6233532;23;20178;-83
2022/12/24 01:11:39;;;;;;;50.95;25.58;;;8.90;99.90;;;;;;6230834;23;20168;-84
2022/12/24 01:14:07;;;;;;;36.17;17.42;;;8.90;99.90;;;;;;6230530;23;20172;-84
2022/12/24 01:16:58;;;;;;;15.50;10.60;;;8.90;99.90;;;;;;6232772;23;20171;-83
2022/12/24 01:19:27;;;;;;;24.70;14.25;;;8.80;99.90;;;;;;6233170;23;20161;-84
2022/12/24 01:21:56;;;;;;;18.08;11.95;;;8.70;99.90;;;;;;6232219;23;20210;-82
2022/12/24 01:24:24;;;;;;;23.45;12.27;;;8.70;99.90;;;;;;6233765;23;20226;-83
2022/12/24 01:26:52;;;;;;;8.30;7.38;;;8.70;99.90;;;;;;6231709;23;20203;-82
2022/12/24 01:29:22;;;;;;;15.23;9.45;;;8.50;99.90;;;;;;6230873;23;20180;-82
2022/12/24 01:31:49;;;;;;;11.65;9.60;;;8.50;99.90;;;;;;6228713;23;20205;-82
2022/12/24 01:34:16;;;;;;;20.08;11.10;;;8.60;99.90;;;;;;6227719;23;20480;-83
2022/12/24 01:36:44;;;;;;;19.02;10.63;;;8.50;99.90;;;;;;6228826;23;20174;-84
2022/12/24 01:39:12;;;;;;;25.23;14.65;;;8.50;99.90;;;;;;6231380;23;20266;-84
2022/12/24 01:53:23;;;;;;;13.57;8.65;;;8.40;99.90;;;;;;6228613;23;20228;-82
2022/12/24 01:55:58;;;;;;;9.20;7.70;;;8.50;99.90;;;;;;6232242;23;20230;-81
2022/12/24 01:58:26;;;;;;;16.15;10.10;;;8.40;99.90;;;;;;6235991;23;20206;-84
2022/12/24 02:00:53;;;;;;;9.38;8.27;;;8.20;99.90;;;;;;6226706;23;20173;-82
2022/12/24 02:03:20;;;;;;;9.15;7.10;;;8.10;99.90;;;;;;6234874;23;20189;-89
2022/12/24 02:05:54;;;;;;;14.88;10.25;;;8.20;99.90;;;;;;6234374;23;20271;-86
2022/12/24 02:08:22;;;;;;;20.25;11.82;;;8.10;99.90;;;;;;6235496;23;20179;-87
2022/12/24 02:10:49;;;;;;;8.88;7.32;;;8.10;99.90;;;;;;6233957;23;20186;-90
2022/12/24 02:13:19;;;;;;;9.38;7.43;;;8.00;99.90;;;;;;6225667;23;20227;-87
2022/12/24 02:16:11;;;;;;;10.20;7.38;;;8.00;99.90;;;;;;6224072;23;20488;-83
2022/12/24 02:18:51;;;;;;;15.27;9.68;;;8.10;99.90;;;;;;6224635;23;20169;-84
2022/12/24 02:21:50;;;;;;;14.63;9.90;;;8.00;99.90;;;;;;6224947;23;20173;-83
2022/12/24 02:24:17;;;;;;;12.63;9.38;;;8.00;99.90;;;;;;6223075;23;20193;-85
2022/12/24 02:27:13;;;;;;;11.57;8.70;;;8.10;99.90;;;;;;6223798;23;20175;-86
2022/12/24 02:30:04;;;;;;;11.85;8.93;;;8.00;99.90;;;;;;6229110;23;20499;-92
2022/12/24 02:32:56;;;;;;;12.00;8.98;;;8.10;99.90;;;;;;6237675;23;20161;-86
2022/12/24 02:35:51;;;;;;;14.32;9.63;;;8.00;99.90;;;;;;6235342;23;20169;-84
2022/12/24 02:38:33;;;;;;;15.48;9.07;;;8.00;99.90;;;;;;6222262;23;20191;-85
2022/12/24 02:41:09;;;;;;;11.32;8.63;;;7.90;99.90;;;;;;6223115;23;20156;-86
2022/12/24 02:43:41;;;;;;;14.45;10.50;;;7.90;99.90;;;;;;6222487;23;20192;-86
2022/12/24 02:46:22;;;;;;;12.10;10.00;;;7.90;99.90;;;;;;6224852;23;20157;-85
2022/12/24 02:48:49;;;;;;;18.25;9.57;;;7.90;99.90;;;;;;6221177;23;20167;-86
2022/12/24 02:51:22;;;;;;;14.02;8.45;;;8.10;99.90;;;;;;6225633;23;20506;-86
2022/12/24 02:53:50;;;;;;;15.65;8.88;;;8.20;99.90;;;;;;6141881;23;20178;-86
2022/12/24 02:56:48;;;;;;;11.95;9.30;;;8.20;99.90;;;;;;6141604;23;20188;-85
2022/12/24 02:59:49;;;;;;;11.93;8.50;;;8.10;99.90;;;;;;6140503;23;20339;-85
2022/12/24 03:02:38;;;;;;;13.45;10.02;;;8.10;99.90;;;;;;6162712;23;20476;-86
2022/12/24 03:05:14;;;;;;;9.75;7.15;;;8.00;99.90;;;;;;6137728;23;20186;-85
2022/12/24 03:08:12;;;;;;;8.07;7.28;;;8.00;99.90;;;;;;6163203;23;20174;-89
2022/12/24 03:14:45;;;;;;;8.43;7.50;;;8.10;99.90;;;;;;6257114;23;20143;-86
2022/12/24 03:17:14;;;;;;;9.27;7.68;;;8.20;99.90;;;;;;6262661;22;20639;-91
2022/12/24 03:19:41;;;;;;;10.45;8.60;;;8.10;99.90;;;;;;6260308;23;20164;-89
2022/12/24 03:22:10;;;;;;;9.30;8.30;;;8.30;99.90;;;;;;6232171;23;20175;-91
2022/12/24 03:24:37;;;;;;;10.57;6.78;;;8.50;99.90;;;;;;6261611;23;20202;-88
2022/12/24 03:27:10;;;;;;;8.52;7.22;;;8.70;99.90;;;;;;6257304;23;20227;-87
2022/12/24 03:29:39;;;;;;;5.63;5.10;;;8.50;99.90;;;;;;6259773;23;20472;-85
2022/12/24 03:32:33;;;;;;;8.68;6.65;;;8.40;99.90;;;;;;6257478;23;20161;-85
2022/12/24 03:46:18;;;;;;;7.50;6.03;;;8.90;99.90;;;;;;6271895;23;20214;-86
2022/12/24 03:49:23;;;;;;;7.47;5.68;;;8.80;99.90;;;;;;6243275;23;20185;-86
2022/12/24 03:51:53;;;;;;;6.25;5.65;;;9.10;99.90;;;;;;6239983;23;20159;-85
2022/12/24 03:54:20;;;;;;;7.95;5.60;;;8.90;99.90;;;;;;6257719;23;20159;-86
2022/12/24 03:56:47;;;;;;;6.15;5.47;;;9.10;99.90;;;;;;6231238;22;20164;-89
2022/12/24 03:59:14;;;;;;;7.30;4.53;;;9.00;99.90;;;;;;6225933;23;20166;-85
2022/12/24 04:01:41;;;;;;;6.00;3.92;;;8.70;99.90;;;;;;6224812;23;20265;-85
2022/12/24 04:04:08;;;;;;;6.40;4.45;;;8.50;99.90;;;;;;6226479;23;20510;-86
2022/12/24 04:22:45;;;;;;;7.45;4.03;;;9.00;99.90;;;;;;6229009;23;20376;-83
2022/12/24 04:25:40;;;;;;;4.07;3.70;;;9.10;99.90;;;;;;6225892;23;20189;-82
2022/12/24 04:28:07;;;;;;;8.70;4.55;;;9.20;99.90;;;;;;6227308;23;20418;-83
2022/12/24 04:30:34;;;;;;;5.10;3.50;;;9.20;99.90;;;;;;6227699;23;20196;-84
2022/12/24 04:33:01;;;;;;;5.47;3.70;;;9.30;99.90;;;;;;6228285;23;20177;-84
2022/12/24 04:36:04;;;;;;;6.47;4.40;;;9.60;99.90;;;;;;6228340;23;20166;-84
2022/12/24 04:42:22;;;;;;;7.78;4.20;;;9.50;99.90;;;;;;6225010;23;20220;-83
2022/12/24 04:44:49;;;;;;;11.27;4.25;;;9.40;99.90;;;;;;6219652;23;20416;-87
2022/12/24 04:47:16;;;;;;;4.93;4.47;;;9.50;99.90;;;;;;6221261;23;20245;-86
2022/12/24 04:49:43;;;;;;;5.72;3.85;;;9.60;99.90;;;;;;6220674;23;20359;-87
2022/12/24 04:52:10;;;;;;;5.78;4.35;;;9.70;99.90;;;;;;6219606;23;20192;-85
2022/12/24 04:54:37;;;;;;;5.78;5.18;;;9.70;99.90;;;;;;6221045;23;20181;-87
2022/12/24 04:57:14;;;;;;;5.90;4.63;;;9.80;99.90;;;;;;6223418;23;20236;-87
2022/12/24 04:59:42;;;;;;;4.72;4.22;;;9.90;99.90;;;;;;6225944;23;20190;-86
2022/12/24 05:02:09;;;;;;;10.05;4.50;;;10.00;99.90;;;;;;6219762;23;20232;-86
2022/12/24 05:04:36;;;;;;;6.85;4.57;;;9.90;99.90;;;;;;6220072;23;20206;-87
2022/12/24 05:07:03;;;;;;;4.60;3.38;;;9.70;99.90;;;;;;6221473;23;20551;-85
2022/12/24 05:09:30;;;;;;;7.80;6.43;;;9.50;99.90;;;;;;6222026;23;20277;-85
2022/12/24 05:11:57;;;;;;;8.65;3.92;;;9.60;99.90;;;;;;6223467;23;20181;-83
2022/12/24 05:14:24;;;;;;;5.65;3.95;;;9.50;99.90;;;;;;6223753;23;20195;-84
2022/12/24 05:16:51;;;;;;;6.97;3.13;;;9.50;99.90;;;;;;6220879;23;20221;-84
2022/12/24 05:19:19;;;;;;;4.00;2.97;;;9.40;99.90;;;;;;6219034;23;20186;-85
2022/12/24 05:26:20;;;;;;;6.20;3.50;;;9.40;99.90;;;;;;6220427;23;20169;-86
2022/12/24 05:27:18;;;;;;;6.80;3.35;;;9.40;99.90;;;;;;6220527;23;20438;-84
2022/12/24 05:29:46;;;;;;;4.68;3.53;;;9.50;99.90;;;;;;6220267;23;20188;-86
2022/12/24 05:32:13;;;;;;;9.80;4.28;;;9.60;99.90;;;;;;6221227;23;20177;-86
2022/12/24 05:34:41;;;;;;;6.03;3.95;;;9.70;99.90;;;;;;6221067;23;20192;-83
2022/12/24 05:37:08;;;;;;;6.40;3.15;;;9.60;99.90;;;;;;6220844;23;20241;-83
2022/12/24 05:39:35;;;;;;;5.95;4.38;;;9.60;99.90;;;;;;6219662;23;20373;-87
2022/12/24 05:42:02;;;;;;;7.72;3.80;;;9.90;99.90;;;;;;6220429;23;20174;-88
2022/12/24 05:44:29;;;;;;;5.65;4.47;;;10.00;99.90;;;;;;6220861;23;20487;-86
2022/12/24 05:46:56;;;;;;;5.20;3.95;;;10.10;99.90;;;;;;6220823;23;20236;-86
2022/12/24 05:49:24;;;;;;;10.82;4.50;;;10.00;99.90;;;;;;6221144;23;20370;-85
2022/12/24 05:51:51;;;;;;;7.40;4.20;;;10.10;99.90;;;;;;6219889;23;20175;-87
2022/12/24 05:54:17;;;;;;;6.20;4.20;;;10.20;99.90;;;;;;6220659;23;20252;-87
2022/12/24 05:56:44;;;;;;;11.10;4.25;;;10.40;99.90;;;;;;6220200;23;20237;-86
2022/12/24 05:59:12;;;;;;;4.68;3.90;;;10.50;99.90;;;;;;6220590;23;20178;-85
2022/12/24 06:01:39;;;;;;;5.18;4.03;;;10.30;99.90;;;;;;6218598;23;20193;-84
2022/12/24 06:04:06;;;;;;;4.53;3.70;;;10.20;99.90;;;;;;6220578;23;20217;-84
2022/12/24 06:06:33;;;;;;;9.43;3.67;;;10.10;99.90;;;;;;6220814;23;20209;-85
2022/12/24 06:09:00;;;;;;;5.03;3.08;;;9.90;99.90;;;;;;6219173;23;20186;-87
2022/12/24 06:11:27;;;;;;;4.18;2.55;;;9.80;99.90;;;;;;6218053;23;20186;-85
2022/12/24 06:13:57;;;;;;;9.27;3.40;;;9.60;99.90;;;;;;6223216;23;20223;-85
2022/12/24 06:16:25;;;;;;;4.50;4.10;;;9.60;99.90;;;;;;6221283;23;20191;-87
2022/12/24 06:18:52;;;;;;;4.65;2.97;;;9.60;99.90;;;;;;6220844;23;20252;-89
2022/12/24 06:21:20;;;;;;;9.15;3.17;;;9.60;99.90;;;;;;6225632;23;20512;-89
2022/12/24 06:23:47;;;;;;;4.53;2.45;;;9.50;99.90;;;;;;6222388;23;20202;-89
2022/12/24 06:26:18;;;;;;;5.07;2.60;;;9.50;99.90;;;;;;6219051;23;20245;-87
2022/12/24 06:28:46;;;;;;;3.65;2.90;;;9.50;99.90;;;;;;6217604;23;20468;-88
2022/12/24 06:31:15;;;;;;;2.70;2.40;;;9.70;99.90;;;;;;6221500;23;20177;-88
2022/12/24 06:33:42;;;;;;;4.40;2.78;;;9.60;99.90;;;;;;6220618;23;20187;-88
2022/12/24 06:36:14;;;;;;;7.15;3.15;;;9.70;99.90;;;;;;6220692;23;20178;-87
2022/12/24 06:38:45;;;;;;;8.23;2.30;;;9.60;99.90;;;;;;6230616;23;20159;-90
2022/12/24 06:41:14;;;;;;;3.78;2.70;;;9.70;99.90;;;;;;6196737;23;20198;-92
2022/12/24 06:43:47;;;;;;;4.10;2.33;;;9.80;99.90;;;;;;6131048;23;20163;-91
2022/12/24 06:46:15;;;;;;;6.82;2.90;;;9.60;99.90;;;;;;6229435;23;20198;-85
2022/12/24 06:48:44;;;;;;;7.40;2.72;;;9.60;99.90;;;;;;6224218;23;20178;-91
2022/12/24 06:51:13;;;;;;;4.30;2.63;;;9.70;99.90;;;;;;6224508;23;20166;-90
2022/12/24 06:53:40;;;;;;;5.75;5.22;;;9.70;99.90;;;;;;6233751;23;20158;-89
2022/12/24 06:56:11;;;;;;;3.80;2.60;;;9.90;99.90;;;;;;6234873;23;20478;-90
2022/12/24 06:58:39;;;;;;;4.28;3.88;;;9.90;99.90;;;;;;6236648;23;20178;-91
2022/12/24 07:01:09;;;;;;;7.25;4.40;;;9.70;99.90;;;;;;6230675;23;20194;-89
2022/12/24 07:03:46;;;;;;;8.18;3.75;;;9.80;99.90;;;;;;6222640;23;20204;-86
2022/12/24 07:06:24;;;;;;;6.78;3.85;;;9.70;99.90;;;;;;6222299;23;20196;-84
2022/12/24 07:08:51;;;;;;;4.47;3.50;;;9.60;99.90;;;;;;6221575;23;20163;-86
2022/12/24 07:11:20;;;;;;;6.72;3.70;;;9.50;99.90;;;;;;6219945;23;20253;-88
2022/12/24 07:13:47;;;;;;;6.97;3.70;;;9.50;99.90;;;;;;6219583;23;20182;-87
2022/12/24 07:16:14;;;;;;;7.45;3.65;;;9.50;99.90;;;;;;6222311;23;20239;-85
2022/12/24 07:18:42;;;;;;;5.07;4.57;;;9.60;99.90;;;;;;6222512;23;20177;-85
2022/12/24 07:21:09;;;;;;;5.53;3.53;;;9.60;99.90;;;;;;6219963;23;20190;-85
2022/12/24 07:23:36;;;;;;;9.32;4.30;;;9.50;99.90;;;;;;6219913;23;20173;-87
2022/12/24 07:26:05;;;;;;;9.52;4.68;;;9.50;99.90;;;;;;6221251;23;20518;-88
2022/12/24 07:28:33;;;;;;;8.10;4.63;;;9.60;99.90;;;;;;6194392;23;20190;-88
2022/12/24 07:31:00;;;;;;;5.03;3.40;;;9.50;99.90;;;;;;6221867;23;20194;-89
2022/12/24 07:33:27;;;;;;;3.97;3.58;;;9.40;99.90;;;;;;6223366;23;20170;-88
2022/12/24 07:36:07;;;;;;;14.27;4.50;;;9.40;99.90;;;;;;6225896;23;20461;-85
2022/12/24 07:38:36;;;;;;;7.10;2.90;;;9.40;99.90;;;;;;6219980;23;20175;-84
2022/12/24 07:41:05;;;;;;;3.20;2.97;;;9.40;99.90;;;;;;6222674;23;20194;-86
2022/12/24 07:43:36;;;;;;;3.55;3.05;;;9.50;99.90;;;;;;6226107;23;20193;-87
2022/12/24 07:46:03;;;;;;;4.75;4.30;;;9.50;99.90;;;;;;6222625;23;20414;-88
2022/12/24 07:48:31;;;;;;;3.55;2.95;;;9.50;99.90;;;;;;6221638;23;20185;-86
2022/12/24 07:50:59;;;;;;;3.63;3.30;;;9.50;99.90;;;;;;6223689;23;20401;-86
2022/12/24 07:53:27;;;;;;;5.28;3.95;;;9.40;99.90;;;;;;6225944;23;20205;-90
2022/12/24 07:55:55;;;;;;;5.78;4.53;;;9.30;99.90;;;;;;6227750;23;20261;-86
2022/12/24 07:58:23;;;;;;;7.15;4.07;;;9.40;99.90;;;;;;6253817;23;20227;-86
2022/12/24 08:01:01;;;;;;;4.70;4.18;;;9.50;99.90;;;;;;6236415;23;20322;-84
2022/12/24 08:07:10;;;;;;;10.95;6.00;;;9.60;99.90;;;;;;6268539;23;20149;-86
2022/12/24 08:13:24;;;;;;;8.30;5.32;;;9.80;99.90;;;;;;6270011;22;20149;-85
2022/12/24 08:15:55;;;;;;;7.32;6.20;;;10.00;99.90;;;;;;6268786;23;20165;-89
2022/12/24 08:18:25;;;;;;;6.20;5.60;;;9.70;99.90;;;;;;6233168;23;20543;-88
2022/12/24 08:20:52;;;;;;;8.75;7.10;;;9.50;99.90;;;;;;6256206;23;20211;-86
2022/12/24 08:23:19;;;;;;;7.20;6.38;;;9.50;99.90;;;;;;6254597;23;20368;-84
2022/12/24 08:25:47;;;;;;;6.95;6.25;;;9.50;99.90;;;;;;6255578;23;20236;-86
2022/12/24 08:28:25;;;;;;;9.38;8.48;;;9.30;99.90;;;;;;6230764;23;20223;-85
2022/12/24 08:30:52;;;;;;;10.00;8.18;;;9.30;99.90;;;;;;6263965;23;20186;-88
2022/12/24 08:33:20;;;;;;;9.75;7.30;;;9.20;99.90;;;;;;6261799;23;20190;-85
2022/12/24 08:35:50;;;;;;;13.23;9.50;;;9.20;99.90;;;;;;6245838;22;20288;-85
2022/12/24 08:38:18;;;;;;;12.52;9.70;;;9.10;99.90;;;;;;6267382;22;20448;-87
2022/12/24 08:40:48;;;;;;;12.38;9.95;;;9.20;99.90;;;;;;6271418;22;20165;-88
2022/12/24 08:43:18;;;;;;;14.02;9.38;;;9.20;99.90;;;;;;6267438;22;20165;-87
2022/12/24 08:45:47;;;;;;;15.73;10.38;;;9.20;99.90;;;;;;6271172;22;20219;-89
2022/12/24 08:48:15;;;;;;;14.45;11.75;;;9.20;99.90;;;;;;6269985;22;20181;-89
2022/12/24 08:50:43;;;;;;;11.40;9.80;;;9.10;99.90;;;;;;6229240;23;20231;-88
2022/12/24 08:53:10;;;;;;;13.70;10.18;;;9.00;99.90;;;;;;6257368;23;20161;-87
2022/12/24 08:55:48;;;;;;;13.23;10.35;;;9.10;99.90;;;;;;6226760;23;20225;-88
2022/12/24 08:58:21;;;;;;;11.40;10.18;;;9.00;99.90;;;;;;6255409;23;20191;-87
2022/12/24 09:00:48;;;;;;;11.60;10.23;;;9.00;99.90;;;;;;6234489;23;20186;-88
2022/12/24 09:03:16;;;;;;;15.75;11.25;;;8.90;99.90;;;;;;6226853;23;20195;-88
2022/12/24 09:05:52;;;;;;;13.23;10.95;;;9.00;99.90;;;;;;6225723;23;20198;-90
2022/12/24 09:08:20;;;;;;;14.88;11.55;;;8.90;99.90;;;;;;6225063;23;20181;-87
2022/12/24 09:10:47;;;;;;;11.07;8.80;;;9.00;99.90;;;;;;6230337;23;20179;-85
2022/12/24 09:13:14;;;;;;;15.50;11.35;;;9.10;99.90;;;;;;6229119;23;20254;-88
2022/12/24 09:15:42;;;;;;;13.65;10.82;;;9.20;99.90;;;;;;6229574;23;20213;-88
2022/12/24 09:18:10;;;;;;;19.13;12.35;;;9.10;99.90;;;;;;6230848;23;20187;-88
2022/12/24 09:20:37;;;;;;;11.13;9.98;;;9.10;99.90;;;;;;6233063;23;20201;-88
2022/12/24 09:23:12;;;;;;;14.10;10.75;;;9.10;99.90;;;;;;6232533;23;20173;-86
2022/12/24 09:25:43;;;;;;;12.68;9.50;;;9.10;99.90;;;;;;6224817;23;20224;-90
2022/12/24 09:28:10;;;;;;;16.80;12.40;;;9.10;99.90;;;;;;6226645;23;20177;-87
2022/12/24 09:30:37;;;;;;;11.65;9.88;;;9.20;99.90;;;;;;6227130;23;20264;-89
2022/12/24 09:33:04;;;;;;;13.02;9.52;;;9.10;99.90;;;;;;6227467;23;20178;-86
2022/12/24 09:35:31;;;;;;;13.30;9.68;;;9.10;99.90;;;;;;6227673;23;20236;-89
2022/12/24 09:38:02;;;;;;;13.70;10.63;;;9.20;99.90;;;;;;6225609;23;20178;-88
2022/12/24 09:40:36;;;;;;;12.90;9.05;;;9.20;99.90;;;;;;6226046;23;20192;-88
2022/12/24 09:43:14;;;;;;;11.85;8.30;;;9.20;99.90;;;;;;6222020;23;20165;-88
2022/12/24 09:46:17;;;;;;;12.68;10.80;;;9.20;99.90;;;;;;6225094;23;20213;-90
2022/12/24 09:48:57;;;;;;;12.63;8.82;;;9.30;99.90;;;;;;6224766;23;20349;-88
2022/12/24 09:51:38;;;;;;;12.63;10.32;;;9.30;99.90;;;;;;6226139;23;20242;-86
2022/12/24 09:54:28;;;;;;;12.07;9.63;;;9.20;99.90;;;;;;6230809;23;20198;-88
2022/12/24 09:57:00;;;;;;;10.77;9.38;;;9.20;99.90;;;;;;6232498;23;20159;-87
2022/12/24 09:59:45;;;;;;;12.48;9.98;;;9.20;99.90;;;;;;6229985;23;20197;-87
2022/12/24 10:02:16;;;;;;;15.13;10.32;;;9.20;99.90;;;;;;6226939;23;20193;-87
2022/12/24 10:05:14;;;;;;;14.90;9.90;;;9.30;99.90;;;;;;6228175;23;20202;-85
2022/12/24 10:07:56;;;;;;;13.48;9.57;;;9.30;99.90;;;;;;6229891;23;20162;-88
2022/12/24 10:10:33;;;;;;;11.23;9.05;;;9.30;99.90;;;;;;6227755;23;20174;-87
2022/12/24 10:13:30;;;;;;;12.13;10.20;;;9.20;99.90;;;;;;6224738;23;20345;-88
2022/12/24 10:16:27;;;;;;;14.45;10.27;;;9.20;99.90;;;;;;6227459;23;20204;-88
2022/12/24 10:19:03;;;;;;;10.82;9.38;;;9.30;99.90;;;;;;6230351;23;20177;-91
2022/12/24 10:21:41;;;;;;;14.90;10.98;;;9.20;99.90;;;;;;6231575;23;20173;-90
2022/12/24 10:24:26;;;;;;;11.57;9.13;;;9.20;99.90;;;;;;6233330;23;20178;-91
2022/12/24 10:27:30;;;;;;;14.85;10.60;;;9.10;99.90;;;;;;6234713;23;20451;-90
2022/12/24 10:34:28;;;;;;;15.93;9.30;;;9.30;99.90;;;;;;6236173;23;20197;-90
2022/12/24 10:40:59;;;;;;;11.88;10.15;;;9.60;99.90;;;;;;6235479;23;20170;-90
2022/12/24 10:51:32;;;;;;;15.48;11.00;;;9.90;99.90;;;;;;6242905;23;20170;-90
2022/12/24 10:58:05;;;;;;;14.75;11.45;;;9.60;99.90;;;;;;6239327;23;20172;-92
2022/12/24 11:04:46;;;;;;;14.70;11.32;;;9.60;99.90;;;;;;6273273;22;20218;-92
2022/12/24 11:11:53;;;;;;;12.88;10.65;;;9.70;99.90;;;;;;6263368;23;20136;-91
2022/12/24 11:14:31;;;;;;;13.95;11.63;;;9.60;99.90;;;;;;6265703;23;20168;-89
2022/12/24 11:17:00;;;;;;;15.52;10.63;;;9.50;99.90;;;;;;6242958;23;20176;-91
2022/12/24 11:19:40;;;;;;;14.50;11.18;;;9.30;99.90;;;;;;6241258;22;20195;-92
2022/12/24 11:55:04;;;;;;;8.63;7.45;;;9.10;99.90;;;;;;6156421;22;20193;-91
2022/12/24 11:58:06;;;;;;;11.52;7.78;;;9.20;99.90;;;;;;6236169;23;20190;-92
2022/12/24 12:03:42;;;;;;;12.65;7.68;;;9.30;99.90;;;;;;6205427;22;20193;-88
2022/12/24 12:06:30;;;;;;;8.85;7.60;;;9.20;99.90;;;;;;6239939;23;20201;-92
2022/12/24 12:09:05;;;;;;;12.30;6.45;;;9.30;99.90;;;;;;6267172;23;20162;-91
2022/12/24 12:11:34;;;;;;;16.17;6.88;;;9.30;99.90;;;;;;6238898;23;20179;-91
2022/12/24 12:14:03;;;;;;;14.60;6.65;;;9.30;99.90;;;;;;6269449;22;20166;-91
2022/12/24 12:16:59;;;;;;;11.75;5.63;;;9.40;99.90;;;;;;6263974;22;20187;-88
2022/12/24 12:19:25;;;;;;;8.05;5.30;;;9.40;99.90;;;;;;6263933;23;20411;-87
2022/12/24 12:26:10;;;;;;;12.85;6.20;;;9.50;99.90;;;;;;6265071;23;20305;-90
2022/12/24 12:29:08;;;;;;;12.10;6.70;;;9.60;99.90;;;;;;6233875;23;20162;-89
2022/12/24 12:35:34;;;;;;;13.95;6.03;;;9.60;99.90;;;;;;6260432;23;20188;-89
2022/12/24 12:38:23;;;;;;;13.70;5.82;;;9.60;99.90;;;;;;6258357;23;20500;-89
2022/12/24 12:41:11;;;;;;;12.32;6.03;;;9.60;99.90;;;;;;6257681;23;20178;-89
2022/12/24 12:44:16;;;;;;;17.05;6.07;;;9.70;99.90;;;;;;6237774;23;20158;-88
2022/12/24 12:47:27;;;;;;;7.45;5.43;;;9.60;99.90;;;;;;6254349;23;20200;-89
2022/12/24 12:49:54;;;;;;;10.23;4.60;;;9.50;99.90;;;;;;6232566;23;20499;-89
2022/12/24 12:52:28;;;;;;;8.73;3.65;;;9.40;99.90;;;;;;6232653;23;20181;-89
2022/12/24 12:55:22;;;;;;;8.18;4.05;;;9.50;99.90;;;;;;6231929;23;20208;-89
2022/12/24 12:57:58;;;;;;;8.23;4.40;;;9.60;99.90;;;;;;6231925;23;20174;-87
2022/12/24 13:00:29;;;;;;;8.93;4.25;;;9.50;99.90;;;;;;6231452;23;20184;-88
2022/12/24 13:03:18;;;;;;;7.93;3.85;;;9.50;99.90;;;;;;6231776;23;20180;-89
2022/12/24 13:06:23;;;;;;;8.57;4.55;;;9.40;99.90;;;;;;6233229;23;20229;-90
2022/12/24 13:09:58;;;;;;;8.45;4.68;;;9.40;99.90;;;;;;6225808;23;20174;-87
2022/12/24 13:12:40;;;;;;;14.23;4.70;;;9.50;99.90;;;;;;6134980;23;20172;-86
2022/12/24 13:15:13;;;;;;;10.30;5.68;;;9.40;99.90;;;;;;6140303;23;20183;-91
2022/12/24 13:18:04;;;;;;;11.20;5.65;;;9.40;99.90;;;;;;6224440;23;20165;-91
2022/12/24 13:26:10;;;;;;;5.80;3.97;;;9.30;99.90;;;;;;6239275;23;20193;-90
2022/12/24 13:28:41;;;;;;;10.70;4.85;;;9.40;99.90;;;;;;6214857;23;20165;-90
2022/12/24 13:43:00;;;;;;;11.98;5.03;;;9.70;99.90;;;;;;6230468;22;20201;-88
2022/12/24 13:45:27;;;;;;;11.40;5.15;;;9.70;99.90;;;;;;6228881;23;20552;-89
2022/12/24 13:48:35;;;;;;;7.93;5.45;;;9.60;99.90;;;;;;6230765;23;20190;-88
2022/12/24 13:51:27;;;;;;;9.85;4.22;;;9.60;99.90;;;;;;6229272;23;20466;-89
2022/12/24 13:54:35;;;;;;;8.32;2.92;;;9.50;99.90;;;;;;6231689;23;20400;-87
2022/12/24 13:57:47;;;;;;;5.88;3.00;;;9.50;99.90;;;;;;6231734;23;20205;-90
2022/12/24 14:04:58;;;;;;;10.48;4.95;;;9.40;99.90;;;;;;6142028;23;20167;-89
2022/12/24 14:11:26;;;;;;;8.65;3.35;;;9.50;99.90;;;;;;6183966;23;20480;-89
2022/12/24 14:14:32;;;;;;;6.00;3.55;;;9.60;99.90;;;;;;6140897;23;20180;-92
2022/12/24 14:17:10;;;;;;;12.63;3.80;;;9.60;99.90;;;;;;6140276;23;20244;-88
2022/12/24 14:20:38;;;;;;;10.10;4.25;;;9.50;99.90;;;;;;6140978;23;20160;-89
2022/12/24 14:46:23;;;;;;;8.27;3.97;;;8.50;99.90;;;;;;6231717;23;20188;-87
2022/12/24 14:49:32;;;;;;;6.85;4.03;;;8.40;99.90;;;;;;6229160;23;20167;-88
2022/12/24 14:56:16;;;;;;;7.15;4.53;;;8.30;99.90;;;;;;6241830;23;20165;-88
2022/12/24 14:58:45;;;;;;;16.50;3.45;;;8.20;99.90;;;;;;6238185;23;20200;-89
2022/12/24 15:02:06;;;;;;;19.90;4.97;;;8.20;99.90;;;;;;6230375;23;20501;-88
2022/12/24 15:12:50;;;;;;;12.90;5.40;;;8.00;99.90;;;;;;6242331;23;20183;-88
2022/12/24 15:15:19;;;;;;;11.48;4.85;;;8.00;99.90;;;;;;6228784;23;20215;-89
2022/12/24 15:17:47;;;;;;;9.43;5.35;;;7.90;99.90;;;;;;6229324;23;20178;-90
2022/12/24 15:20:21;;;;;;;11.25;7.15;;;8.00;99.90;;;;;;6230283;23;20464;-90
2022/12/24 16:27:12;;;;;;;8.82;5.45;;;8.60;99.90;;;;;;6238373;23;20180;-89
2022/12/24 16:29:57;;;;;;;11.70;5.25;;;8.60;99.90;;;;;;6241438;23;20175;-89
2022/12/24 16:36:36;;;;;;;12.25;6.43;;;8.60;99.90;;;;;;6234433;23;20147;-88
2022/12/24 16:46:12;;;;;;;6.45;5.13;;;9.00;99.90;;;;;;6234250;23;20428;-89
2022/12/24 16:53:26;;;;;;;20.02;13.00;;;9.10;99.90;;;;;;6232565;23;20164;-90
2022/12/24 16:55:56;;;;;;;29.63;13.48;;;9.40;99.90;;;;;;6233504;23;20344;-90
2022/12/24 16:58:28;;;;;;;24.17;10.57;;;9.40;99.90;;;;;;6233705;23;20176;-90
2022/12/24 17:01:09;;;;;;;19.83;9.60;;;9.40;99.90;;;;;;6218323;23;20206;-92
2022/12/24 17:09:00;;;;;;;43.83;16.40;;;9.90;99.90;;;;;;6231360;22;20337;-90
2022/12/24 17:11:27;;;;;;;18.65;8.32;;;10.00;99.90;;;;;;6229450;23;20175;-91
2022/12/24 17:13:55;;;;;;;18.73;9.80;;;9.90;99.90;;;;;;6233119;23;20176;-91
2022/12/24 17:16:36;;;;;;;28.85;12.07;;;9.90;99.90;;;;;;6239227;23;20163;-90
2022/12/24 17:19:04;;;;;;;28.90;13.93;;;10.00;99.90;;;;;;6231995;23;20189;-89
2022/12/24 17:21:32;;;;;;;24.10;12.18;;;10.10;99.90;;;;;;6236208;23;20181;-90
2022/12/24 17:24:13;;;;;;;25.83;11.57;;;10.10;99.90;;;;;;6234044;23;20173;-90
2022/12/24 17:26:43;;;;;;;25.90;14.90;;;10.10;99.90;;;;;;6230321;23;20393;-91
2022/12/24 17:29:10;;;;;;;38.42;16.98;;;10.00;99.90;;;;;;6227483;23;20177;-91
2022/12/24 17:31:39;;;;;;;40.17;16.17;;;9.40;99.90;;;;;;6231393;23;20184;-90
2022/12/24 17:34:09;;;;;;;48.63;20.10;;;9.30;99.90;;;;;;6230798;23;20219;-90
2022/12/24 17:36:36;;;;;;;26.70;13.93;;;9.40;99.90;;;;;;6230517;23;20173;-90
2022/12/24 17:39:03;;;;;;;30.33;14.07;;;9.20;99.90;;;;;;6231457;23;20224;-90
2022/12/24 17:41:30;;;;;;;29.90;13.95;;;9.20;99.90;;;;;;6230431;23;20174;-90
2022/12/24 17:43:58;;;;;;;32.08;12.80;;;9.30;99.90;;;;;;6233796;23;20347;-91
2022/12/24 17:46:25;;;;;;;20.65;10.65;;;9.30;99.90;;;;;;6233929;23;20259;-90
2022/12/24 17:48:54;;;;;;;28.80;12.70;;;9.50;99.90;;;;;;6233078;23;20227;-90
2022/12/24 17:51:23;;;;;;;31.60;11.80;;;9.60;99.90;;;;;;6231579;23;20209;-90
2022/12/24 17:53:52;;;;;;;23.85;12.15;;;9.40;99.90;;;;;;6231735;23;20489;-90
2022/12/24 17:56:32;;;;;;;20.17;9.93;;;9.50;99.90;;;;;;6239629;23;20173;-91
2022/12/24 17:58:59;;;;;;;22.10;9.43;;;9.50;99.90;;;;;;6239759;23;20175;-92
2022/12/24 18:01:30;;;;;;;14.05;9.55;;;9.30;99.90;;;;;;6238510;23;20174;-91